sensor_id;sensor_type;location;lat;lon;timestamp;pressure;altitude;pressure_sealevel;temperature;humidity
49689;BME280;70518;51.400;7.428;2023-09-07T00:00:29;159293.47;;;20.72;100.00
49689;BME280;70518;51.400;7.428;2023-09-07T00:02:55;159284.38;;;20.69;100.00
49689;BME280;70518;51.400;7.428;2023-09-07T00:05:20;159292.16;;;20.72;100.00
49689;BME280;70518;51.400;7.428;2023-09-07T00:07:45;159286.94;;;20.70;100.00
49689;BME280;70518;51.400;7.428;2023-09-07T00:10:10;159275.28;;;20.65;100.00
49689;BME280;70518;51.400;7.428;2023-09-07T00:12:36;159248.06;;;20.55;100.00
49689;BME280;70518;51.400;7.428;2023-09-07T00:15:05;159249.31;;;20.55;100.00
49689;BME280;70518;51.400;7.428;2023-09-07T00:17:31;159248.06;;;20.55;100.00
49689;BME280;70518;51.400;7.428;2023-09-07T00:19:57;159244.13;;;20.53;100.00
49689;BME280;70518;51.400;7.428;2023-09-07T00:22:23;159238.94;;;20.51;100.00
49689;BME280;70518;51.400;7.428;2023-09-07T00:24:50;159235.03;;;20.49;100.00
49689;BME280;70518;51.400;7.428;2023-09-07T00:27:15;159188.31;;;20.31;100.00
49689;BME280;70518;51.400;7.428;2023-09-07T00:29:41;159164.91;;;20.22;100.00
49689;BME280;70518;51.400;7.428;2023-09-07T00:32:06;159167.50;;;20.23;100.00
49689;BME280;70518;51.400;7.428;2023-09-07T00:34:33;159176.66;;;20.27;100.00
49689;BME280;70518;51.400;7.428;2023-09-07T00:36:59;159161.03;;;20.21;100.00
49689;BME280;70518;51.400;7.428;2023-09-07T00:39:25;159154.56;;;20.18;100.00
49689;BME280;70518;51.400;7.428;2023-09-07T00:41:50;159158.44;;;20.20;100.00
49689;BME280;70518;51.400;7.428;2023-09-07T00:44:15;159145.47;;;20.15;100.00
49689;BME280;70518;51.400;7.428;2023-09-07T00:46:41;159154.56;;;20.18;100.00
49689;BME280;70518;51.400;7.428;2023-09-07T00:49:07;159162.34;;;20.21;100.00
49689;BME280;70518;51.400;7.428;2023-09-07T00:51:33;159150.63;;;20.17;100.00
49689;BME280;70518;51.400;7.428;2023-09-07T00:53:58;159146.75;;;20.15;100.00
49689;BME280;70518;51.400;7.428;2023-09-07T00:56:26;159137.69;;;20.12;100.00
49689;BME280;70518;51.400;7.428;2023-09-07T00:58:52;159123.41;;;20.06;100.00
49689;BME280;70518;51.400;7.428;2023-09-07T01:01:19;159153.25;;;20.18;100.00
49689;BME280;70518;51.400;7.428;2023-09-07T01:03:44;159142.84;;;20.14;100.00
49689;BME280;70518;51.400;7.428;2023-09-07T01:06:19;159133.81;;;20.10;100.00
49689;BME280;70518;51.400;7.428;2023-09-07T01:08:51;159135.06;;;20.11;100.00
49689;BME280;70518;51.400;7.428;2023-09-07T01:11:21;159122.09;;;20.06;100.00
49689;BME280;70518;51.400;7.428;2023-09-07T01:13:48;159126.03;;;20.07;100.00
49689;BME280;70518;51.400;7.428;2023-09-07T01:16:13;159070.22;;;19.85;100.00
49689;BME280;70518;51.400;7.428;2023-09-07T01:18:39;159081.88;;;19.90;100.00
49689;BME280;70518;51.400;7.428;2023-09-07T01:21:08;159075.38;;;19.87;100.00
49689;BME280;70518;51.400;7.428;2023-09-07T01:23:35;159063.75;;;19.83;100.00
49689;BME280;70518;51.400;7.428;2023-09-07T01:26:01;159055.94;;;19.80;100.00
49689;BME280;70518;51.400;7.428;2023-09-07T01:28:27;159028.69;;;19.69;100.00
49689;BME280;70518;51.400;7.428;2023-09-07T01:30:52;159005.34;;;19.60;100.00
49689;BME280;70518;51.400;7.428;2023-09-07T01:33:18;158980.72;;;19.51;100.00
49689;BME280;70518;51.400;7.428;2023-09-07T01:35:43;158981.97;;;19.51;100.00
49689;BME280;70518;51.400;7.428;2023-09-07T01:38:09;158949.53;;;19.38;100.00
49689;BME280;70518;51.400;7.428;2023-09-07T01:40:35;158959.94;;;19.42;100.00
49689;BME280;70518;51.400;7.428;2023-09-07T01:43:00;158962.53;;;19.44;100.00
49689;BME280;70518;51.400;7.428;2023-09-07T01:45:26;158945.63;;;19.37;100.00
49689;BME280;70518;51.400;7.428;2023-09-07T01:47:51;158940.47;;;19.35;100.00
49689;BME280;70518;51.400;7.428;2023-09-07T01:50:17;158918.41;;;19.26;100.00
49689;BME280;70518;51.400;7.428;2023-09-07T01:52:46;158915.81;;;19.25;100.00
49689;BME280;70518;51.400;7.428;2023-09-07T01:55:12;158892.47;;;19.16;100.00
49689;BME280;70518;51.400;7.428;2023-09-07T01:57:37;158896.38;;;19.18;100.00
49689;BME280;70518;51.400;7.428;2023-09-07T02:00:04;158882.06;;;19.12;100.00
49689;BME280;70518;51.400;7.428;2023-09-07T02:02:30;158852.25;;;19.01;100.00
49689;BME280;70518;51.400;7.428;2023-09-07T02:04:55;158843.22;;;18.97;100.00
49689;BME280;70518;51.400;7.428;2023-09-07T02:07:21;158815.97;;;18.86;100.00
49689;BME280;70518;51.400;7.428;2023-09-07T02:09:46;158830.22;;;18.92;100.00
49689;BME280;70518;51.400;7.428;2023-09-07T02:12:11;158819.88;;;18.88;100.00
49689;BME280;70518;51.400;7.428;2023-09-07T02:14:37;158830.22;;;18.92;100.00
49689;BME280;70518;51.400;7.428;2023-09-07T02:17:02;158806.88;;;18.83;100.00
49689;BME280;70518;51.400;7.428;2023-09-07T02:19:27;158797.84;;;18.79;100.00
49689;BME280;70518;51.400;7.428;2023-09-07T02:21:53;158796.53;;;18.79;100.00
49689;BME280;70518;51.400;7.428;2023-09-07T02:24:19;158836.69;;;18.95;100.00
49689;BME280;70518;51.400;7.428;2023-09-07T02:26:44;158858.78;;;19.03;100.00
49689;BME280;70518;51.400;7.428;2023-09-07T02:29:13;158856.16;;;19.02;100.00
49689;BME280;70518;51.400;7.428;2023-09-07T02:31:41;158801.69;;;18.81;100.00
49689;BME280;70518;51.400;7.428;2023-09-07T02:34:07;158809.47;;;18.84;100.00
49689;BME280;70518;51.400;7.428;2023-09-07T02:36:33;158814.66;;;18.86;100.00
49689;BME280;70518;51.400;7.428;2023-09-07T02:38:59;158819.88;;;18.88;100.00
49689;BME280;70518;51.400;7.428;2023-09-07T02:41:24;158775.75;;;18.71;100.00
49689;BME280;70518;51.400;7.428;2023-09-07T02:43:50;158738.16;;;18.56;100.00
49689;BME280;70518;51.400;7.428;2023-09-07T02:46:16;158716.06;;;18.48;100.00
49689;BME280;70518;51.400;7.428;2023-09-07T02:48:41;158691.44;;;18.38;100.00
49689;BME280;70518;51.400;7.428;2023-09-07T02:51:07;158723.91;;;18.51;100.00
49689;BME280;70518;51.400;7.428;2023-09-07T02:53:32;158697.97;;;18.41;100.00
49689;BME280;70518;51.400;7.428;2023-09-07T02:55:57;158688.88;;;18.37;100.00
49689;BME280;70518;51.400;7.428;2023-09-07T02:58:23;158665.53;;;18.28;100.00
49689;BME280;70518;51.400;7.428;2023-09-07T03:00:48;158656.47;;;18.24;100.00
49689;BME280;70518;51.400;7.428;2023-09-07T03:03:14;158690.19;;;18.38;100.00
49689;BME280;70518;51.400;7.428;2023-09-07T03:05:43;158684.97;;;18.36;100.00
49689;BME280;70518;51.400;7.428;2023-09-07T03:08:08;158674.63;;;18.31;100.00
49689;BME280;70518;51.400;7.428;2023-09-07T03:10:37;158669.41;;;18.29;100.00
49689;BME280;70518;51.400;7.428;2023-09-07T03:13:05;158659.06;;;18.25;100.00
49689;BME280;70518;51.400;7.428;2023-09-07T03:15:30;158650.00;;;18.22;100.00
49689;BME280;70518;51.400;7.428;2023-09-07T03:17:55;158673.31;;;18.31;100.00
49689;BME280;70518;51.400;7.428;2023-09-07T03:20:21;158630.53;;;18.14;100.00
49689;BME280;70518;51.400;7.428;2023-09-07T03:22:46;158607.25;;;18.05;100.00
49689;BME280;70518;51.400;7.428;2023-09-07T03:25:13;158622.75;;;18.11;100.00
49689;BME280;70518;51.400;7.428;2023-09-07T03:27:38;158638.31;;;18.17;100.00
49689;BME280;70518;51.400;7.428;2023-09-07T03:30:04;158639.59;;;18.18;100.00
49689;BME280;70518;51.400;7.428;2023-09-07T03:32:31;158599.47;;;18.02;100.00
49689;BME280;70518;51.400;7.428;2023-09-07T03:35:00;158570.91;;;17.91;100.00
49689;BME280;70518;51.400;7.428;2023-09-07T03:37:27;158561.84;;;17.88;100.00
49689;BME280;70518;51.400;7.428;2023-09-07T03:39:53;158538.56;;;17.79;100.00
49689;BME280;70518;51.400;7.428;2023-09-07T03:42:18;158526.88;;;17.74;100.00
49689;BME280;70518;51.400;7.428;2023-09-07T03:44:43;158519.09;;;17.71;100.00
49689;BME280;70518;51.400;7.428;2023-09-07T03:47:09;158519.09;;;17.71;100.00
49689;BME280;70518;51.400;7.428;2023-09-07T03:49:35;158506.16;;;17.66;100.00
49689;BME280;70518;51.400;7.428;2023-09-07T03:52:00;158499.69;;;17.63;100.00
49689;BME280;70518;51.400;7.428;2023-09-07T03:54:25;158535.94;;;17.77;100.00
49689;BME280;70518;51.400;7.428;2023-09-07T03:56:51;158543.72;;;17.81;100.00
49689;BME280;70518;51.400;7.428;2023-09-07T03:59:16;158539.81;;;17.79;100.00
49689;BME280;70518;51.400;7.428;2023-09-07T04:01:42;158547.59;;;17.82;100.00
49689;BME280;70518;51.400;7.428;2023-09-07T04:04:07;158547.59;;;17.82;100.00
49689;BME280;70518;51.400;7.428;2023-09-07T04:06:32;158552.81;;;17.84;100.00
49689;BME280;70518;51.400;7.428;2023-09-07T04:08:57;158545.03;;;17.81;100.00
49689;BME280;70518;51.400;7.428;2023-09-07T04:11:23;158523.00;;;17.72;100.00
49689;BME280;70518;51.400;7.428;2023-09-07T04:13:48;158503.56;;;17.65;100.00
49689;BME280;70518;51.400;7.428;2023-09-07T04:16:13;158513.94;;;17.69;100.00
49689;BME280;70518;51.400;7.428;2023-09-07T04:18:39;158519.09;;;17.71;100.00
49689;BME280;70518;51.400;7.428;2023-09-07T04:21:07;158521.72;;;17.72;100.00
49689;BME280;70518;51.400;7.428;2023-09-07T04:23:33;158471.09;;;17.52;100.00
49689;BME280;70518;51.400;7.428;2023-09-07T04:26:12;158460.75;;;17.48;100.00
49689;BME280;70518;51.400;7.428;2023-09-07T04:28:38;158472.41;;;17.53;100.00
49689;BME280;70518;51.400;7.428;2023-09-07T04:31:05;158475.00;;;17.54;100.00
49689;BME280;70518;51.400;7.428;2023-09-07T04:33:34;158456.84;;;17.47;100.00
49689;BME280;70518;51.400;7.428;2023-09-07T04:36:13;158462.06;;;17.49;100.00
49689;BME280;70518;51.400;7.428;2023-09-07T04:38:39;158456.84;;;17.47;100.00
49689;BME280;70518;51.400;7.428;2023-09-07T04:41:08;158456.84;;;17.47;100.00
49689;BME280;70518;51.400;7.428;2023-09-07T04:43:34;158464.63;;;17.50;100.00
49689;BME280;70518;51.400;7.428;2023-09-07T04:45:59;158456.84;;;17.47;100.00
49689;BME280;70518;51.400;7.428;2023-09-07T04:48:25;158451.69;;;17.45;100.00
49689;BME280;70518;51.400;7.428;2023-09-07T04:51:04;158477.66;;;17.55;100.00
49689;BME280;70518;51.400;7.428;2023-09-07T04:53:31;158442.63;;;17.41;100.00
49689;BME280;70518;51.400;7.428;2023-09-07T04:55:57;158436.16;;;17.39;100.00
49689;BME280;70518;51.400;7.428;2023-09-07T04:58:23;158394.66;;;17.22;100.00
49689;BME280;70518;51.400;7.428;2023-09-07T05:00:48;158397.28;;;17.23;100.00
49689;BME280;70518;51.400;7.428;2023-09-07T05:03:14;158429.69;;;17.36;100.00
49689;BME280;70518;51.400;7.428;2023-09-07T05:05:39;158449.09;;;17.44;100.00
49689;BME280;70518;51.400;7.428;2023-09-07T05:08:05;158433.53;;;17.38;100.00
49689;BME280;70518;51.400;7.428;2023-09-07T05:10:34;158436.16;;;17.39;100.00
49689;BME280;70518;51.400;7.428;2023-09-07T05:12:59;158427.06;;;17.35;100.00
49689;BME280;70518;51.400;7.428;2023-09-07T05:15:25;158421.91;;;17.33;100.00
49689;BME280;70518;51.400;7.428;2023-09-07T05:17:54;158377.88;;;17.16;100.00
49689;BME280;70518;51.400;7.428;2023-09-07T05:20:19;158368.78;;;17.12;100.00
49689;BME280;70518;51.400;7.428;2023-09-07T05:22:44;158354.56;;;17.07;100.00
49689;BME280;70518;51.400;7.428;2023-09-07T05:25:10;158357.13;;;17.08;100.00
49689;BME280;70518;51.400;7.428;2023-09-07T05:27:36;158344.19;;;17.03;100.00
49689;BME280;70518;51.400;7.428;2023-09-07T05:30:02;158355.81;;;17.07;100.00
49689;BME280;70518;51.400;7.428;2023-09-07T05:32:27;158363.59;;;17.10;100.00
49689;BME280;70518;51.400;7.428;2023-09-07T05:34:53;158383.03;;;17.18;100.00
49689;BME280;70518;51.400;7.428;2023-09-07T05:37:18;158389.50;;;17.20;100.00
49689;BME280;70518;51.400;7.428;2023-09-07T05:39:44;158386.91;;;17.19;100.00
49689;BME280;70518;51.400;7.428;2023-09-07T05:42:10;158397.28;;;17.23;100.00
49689;BME280;70518;51.400;7.428;2023-09-07T05:44:35;158416.69;;;17.31;100.00
49689;BME280;70518;51.400;7.428;2023-09-07T05:47:00;158405.06;;;17.27;100.00
49689;BME280;70518;51.400;7.428;2023-09-07T05:49:27;158384.34;;;17.18;100.00
49689;BME280;70518;51.400;7.428;2023-09-07T05:51:53;158392.13;;;17.21;100.00
49689;BME280;70518;51.400;7.428;2023-09-07T05:54:18;158407.66;;;17.28;100.00
49689;BME280;70518;51.400;7.428;2023-09-07T05:56:43;158415.44;;;17.31;100.00
49689;BME280;70518;51.400;7.428;2023-09-07T05:59:08;158393.41;;;17.22;100.00
49689;BME280;70518;51.400;7.428;2023-09-07T06:01:34;158390.81;;;17.21;100.00
49689;BME280;70518;51.400;7.428;2023-09-07T06:03:59;158370.09;;;17.13;100.00
49689;BME280;70518;51.400;7.428;2023-09-07T06:06:24;158375.28;;;17.15;100.00
49689;BME280;70518;51.400;7.428;2023-09-07T06:08:50;158406.34;;;17.27;100.00
49689;BME280;70518;51.400;7.428;2023-09-07T06:11:15;158408.97;;;17.28;100.00
49689;BME280;70518;51.400;7.428;2023-09-07T06:13:41;158381.72;;;17.17;100.00
49689;BME280;70518;51.400;7.428;2023-09-07T06:16:06;158390.81;;;17.21;100.00
49689;BME280;70518;51.400;7.428;2023-09-07T06:18:32;158390.81;;;17.21;100.00
49689;BME280;70518;51.400;7.428;2023-09-07T06:20:57;158405.06;;;17.27;100.00
49689;BME280;70518;51.400;7.428;2023-09-07T06:23:22;158388.19;;;17.20;100.00
49689;BME280;70518;51.400;7.428;2023-09-07T06:25:48;158393.41;;;17.22;100.00
49689;BME280;70518;51.400;7.428;2023-09-07T06:28:13;158411.53;;;17.29;100.00
49689;BME280;70518;51.400;7.428;2023-09-07T06:30:38;158425.75;;;17.35;100.00
49689;BME280;70518;51.400;7.428;2023-09-07T06:33:04;158454.31;;;17.46;100.00
49689;BME280;70518;51.400;7.428;2023-09-07T06:35:29;158471.09;;;17.52;100.00
49689;BME280;70518;51.400;7.428;2023-09-07T06:37:54;158471.09;;;17.52;100.00
49689;BME280;70518;51.400;7.428;2023-09-07T06:40:21;158484.13;;;17.57;100.00
49689;BME280;70518;51.400;7.428;2023-09-07T06:42:46;158500.94;;;17.64;100.00
49689;BME280;70518;51.400;7.428;2023-09-07T06:45:11;158495.78;;;17.62;100.00
49689;BME280;70518;51.400;7.428;2023-09-07T06:47:37;158485.41;;;17.58;100.00
49689;BME280;70518;51.400;7.428;2023-09-07T06:50:02;158503.56;;;17.65;100.00
49689;BME280;70518;51.400;7.428;2023-09-07T06:52:27;158516.50;;;17.70;100.00
49689;BME280;70518;51.400;7.428;2023-09-07T06:54:53;158520.41;;;17.71;100.00
49689;BME280;70518;51.400;7.428;2023-09-07T06:57:18;158528.19;;;17.74;100.00
49689;BME280;70518;51.400;7.428;2023-09-07T06:59:44;158534.66;;;17.77;100.00
49689;BME280;70518;51.400;7.428;2023-09-07T07:02:09;158550.19;;;17.83;100.00
49689;BME280;70518;51.400;7.428;2023-09-07T07:04:34;158581.31;;;17.95;100.00
49689;BME280;70518;51.400;7.428;2023-09-07T07:07:00;158615.00;;;18.08;100.00
49689;BME280;70518;51.400;7.428;2023-09-07T07:09:29;158626.66;;;18.13;100.00
49689;BME280;70518;51.400;7.428;2023-09-07T07:11:54;158630.53;;;18.14;100.00
49689;BME280;70518;51.400;7.428;2023-09-07T07:14:20;158644.81;;;18.20;100.00
49689;BME280;70518;51.400;7.428;2023-09-07T07:16:45;158668.16;;;18.29;100.00
49689;BME280;70518;51.400;7.428;2023-09-07T07:19:10;158682.41;;;18.35;100.00
49689;BME280;70518;51.400;7.428;2023-09-07T07:21:35;158678.50;;;18.33;100.00
49689;BME280;70518;51.400;7.428;2023-09-07T07:24:01;158714.78;;;18.47;100.00
49689;BME280;70518;51.400;7.428;2023-09-07T07:26:26;158736.91;;;18.56;100.00
49689;BME280;70518;51.400;7.428;2023-09-07T07:28:52;158751.16;;;18.61;100.00
49689;BME280;70518;51.400;7.428;2023-09-07T07:31:17;158749.84;;;18.61;100.00
49689;BME280;70518;51.400;7.428;2023-09-07T07:33:42;158762.81;;;18.66;100.00
49689;BME280;70518;51.400;7.428;2023-09-07T07:36:07;158786.13;;;18.75;100.00
49689;BME280;70518;51.400;7.428;2023-09-07T07:38:33;158801.69;;;18.81;100.00
49689;BME280;70518;51.400;7.428;2023-09-07T07:41:00;158817.25;;;18.87;100.00
49689;BME280;70518;51.400;7.428;2023-09-07T07:43:25;158819.88;;;18.88;100.00
49689;BME280;70518;51.400;7.428;2023-09-07T07:45:53;158825.03;;;18.90;100.00
49689;BME280;70518;51.400;7.428;2023-09-07T07:48:18;158853.56;;;19.01;100.00
49689;BME280;70518;51.400;7.428;2023-09-07T07:50:44;158883.38;;;19.13;100.00
49689;BME280;70518;51.400;7.428;2023-09-07T07:53:09;158920.97;;;19.27;100.00
49689;BME280;70518;51.400;7.428;2023-09-07T07:55:38;158939.16;;;19.34;100.00
49689;BME280;70518;51.400;7.428;2023-09-07T07:58:07;158954.75;;;19.40;100.00
49689;BME280;70518;51.400;7.428;2023-09-07T08:00:34;158978.13;;;19.50;100.00
49689;BME280;70518;51.400;7.428;2023-09-07T08:03:00;158989.75;;;19.54;100.00
49689;BME280;70518;51.400;7.428;2023-09-07T08:05:28;159015.72;;;19.64;100.00
49689;BME280;70518;51.400;7.428;2023-09-07T08:07:53;159045.56;;;19.76;100.00
49689;BME280;70518;51.400;7.428;2023-09-07T08:10:19;159075.38;;;19.87;100.00
49689;BME280;70518;51.400;7.428;2023-09-07T08:12:44;159084.47;;;19.91;100.00
49689;BME280;70518;51.400;7.428;2023-09-07T08:15:09;159118.22;;;20.04;100.00
49689;BME280;70518;51.400;7.428;2023-09-07T08:17:35;159144.16;;;20.14;100.00
49689;BME280;70518;51.400;7.428;2023-09-07T08:20:00;159180.53;;;20.28;100.00
49689;BME280;70518;51.400;7.428;2023-09-07T08:22:25;159198.72;;;20.35;100.00
49689;BME280;70518;51.400;7.428;2023-09-07T08:24:52;159222.06;;;20.44;100.00
49689;BME280;70518;51.400;7.428;2023-09-07T08:27:19;159237.66;;;20.50;100.00
49689;BME280;70518;51.400;7.428;2023-09-07T08:29:45;159281.75;;;20.68;100.00
49689;BME280;70518;51.400;7.428;2023-09-07T08:32:16;159323.31;;;20.84;100.00
49689;BME280;70518;51.400;7.428;2023-09-07T08:34:41;159334.97;;;20.88;100.00
49689;BME280;70518;51.400;7.428;2023-09-07T08:37:07;159332.41;;;20.87;100.00
49689;BME280;70518;51.400;7.428;2023-09-07T08:39:34;159384.34;;;21.08;100.00
49689;BME280;70518;51.400;7.428;2023-09-07T08:41:59;159390.88;;;21.10;100.00
49689;BME280;70518;51.400;7.428;2023-09-07T08:44:26;159431.13;;;21.26;100.00
49689;BME280;70518;51.400;7.428;2023-09-07T08:46:52;159457.06;;;21.36;100.00
49689;BME280;70518;51.400;7.428;2023-09-07T08:49:18;159461.00;;;21.37;100.00
49689;BME280;70518;51.400;7.428;2023-09-07T08:51:48;159507.75;;;21.55;100.00
49689;BME280;70518;51.400;7.428;2023-09-07T08:54:14;159533.69;;;21.66;100.00
49689;BME280;70518;51.400;7.428;2023-09-07T08:56:39;159566.16;;;21.78;100.00
49689;BME280;70518;51.400;7.428;2023-09-07T08:59:04;159619.47;;;21.99;100.00
49689;BME280;70518;51.400;7.428;2023-09-07T09:01:31;159642.84;;;22.08;100.00
49689;BME280;70518;51.400;7.428;2023-09-07T09:03:58;159672.72;;;22.20;100.00
49689;BME280;70518;51.400;7.428;2023-09-07T09:06:23;159713.00;;;22.35;98.93
49689;BME280;70518;51.400;7.428;2023-09-07T09:08:51;159750.69;;;22.50;95.29
49689;BME280;70518;51.400;7.428;2023-09-07T09:11:17;159787.06;;;22.64;94.69
49689;BME280;70518;51.400;7.428;2023-09-07T09:13:44;159846.88;;;22.87;93.22
49689;BME280;70518;51.400;7.428;2023-09-07T09:16:10;159882.00;;;23.01;90.84
49689;BME280;70518;51.400;7.428;2023-09-07T09:18:36;159922.25;;;23.16;87.50
49689;BME280;70518;51.400;7.428;2023-09-07T09:21:01;159965.16;;;23.33;82.52
49689;BME280;70518;51.400;7.428;2023-09-07T09:23:36;159980.81;;;23.39;80.17
49689;BME280;70518;51.400;7.428;2023-09-07T09:26:03;160019.81;;;23.54;78.23
49689;BME280;70518;51.400;7.428;2023-09-07T09:28:34;160036.69;;;23.61;78.77
49689;BME280;70518;51.400;7.428;2023-09-07T09:31:00;160054.91;;;23.68;76.98
49689;BME280;70518;51.400;7.428;2023-09-07T09:33:26;160084.81;;;23.79;74.05
49689;BME280;70518;51.400;7.428;2023-09-07T09:35:53;160105.59;;;23.88;73.44
49689;BME280;70518;51.400;7.428;2023-09-07T09:38:19;160135.53;;;23.99;72.13
49689;BME280;70518;51.400;7.428;2023-09-07T09:40:45;160165.50;;;24.11;73.16
49689;BME280;70518;51.400;7.428;2023-09-07T09:43:11;160183.69;;;24.18;71.77
49689;BME280;70518;51.400;7.428;2023-09-07T09:45:37;160209.72;;;24.28;70.53
49689;BME280;70518;51.400;7.428;2023-09-07T09:48:07;160233.13;;;24.37;70.74
49689;BME280;70518;51.400;7.428;2023-09-07T09:50:33;160259.09;;;24.47;69.27
49689;BME280;70518;51.400;7.428;2023-09-07T09:53:06;160302.06;;;24.64;68.55
49689;BME280;70518;51.400;7.428;2023-09-07T09:55:33;160352.81;;;24.83;67.33
49689;BME280;70518;51.400;7.428;2023-09-07T09:57:59;160356.75;;;24.85;67.18
49689;BME280;70518;51.400;7.428;2023-09-07T10:00:25;160389.25;;;24.98;65.23
49689;BME280;70518;51.400;7.428;2023-09-07T10:03:16;160415.28;;;25.08;65.12
49689;BME280;70518;51.400;7.428;2023-09-07T10:05:40;160445.19;;;25.19;64.67
49689;BME280;70518;51.400;7.428;2023-09-07T10:08:15;160489.44;;;25.36;63.38
49689;BME280;70518;51.400;7.428;2023-09-07T10:10:43;160510.28;;;25.45;63.15
49689;BME280;70518;51.400;7.428;2023-09-07T10:13:09;160514.16;;;25.46;61.97
49689;BME280;70518;51.400;7.428;2023-09-07T10:15:34;160566.28;;;25.66;60.92
49689;BME280;70518;51.400;7.428;2023-09-07T10:18:12;160581.88;;;25.72;60.47
49689;BME280;70518;51.400;7.428;2023-09-07T10:20:50;160615.75;;;25.85;61.52
49689;BME280;70518;51.400;7.428;2023-09-07T10:23:16;160636.56;;;25.93;61.06
49689;BME280;70518;51.400;7.428;2023-09-07T10:25:42;160675.63;;;26.09;60.25
49689;BME280;70518;51.400;7.428;2023-09-07T10:28:23;160693.91;;;26.16;61.06
49689;BME280;70518;51.400;7.428;2023-09-07T10:31:24;160735.56;;;26.32;60.52
49689;BME280;70518;51.400;7.428;2023-09-07T10:33:49;160759.00;;;26.41;59.96
49689;BME280;70518;51.400;7.428;2023-09-07T10:36:23;160786.38;;;26.52;60.45
49689;BME280;70518;51.400;7.428;2023-09-07T10:38:49;160805.88;;;26.59;59.40
49689;BME280;70518;51.400;7.428;2023-09-07T10:41:14;160826.69;;;26.67;59.18
49689;BME280;70518;51.400;7.428;2023-09-07T10:43:47;160834.50;;;26.70;58.31
49689;BME280;70518;51.400;7.428;2023-09-07T10:46:13;160865.81;;;26.82;57.43
49689;BME280;70518;51.400;7.428;2023-09-07T10:48:38;160889.25;;;26.91;55.97
49689;BME280;70518;51.400;7.428;2023-09-07T10:51:04;160941.34;;;27.12;56.48
49689;BME280;70518;51.400;7.428;2023-09-07T10:53:31;160940.09;;;27.11;57.05
49689;BME280;70518;51.400;7.428;2023-09-07T10:55:58;160976.53;;;27.25;56.26
49689;BME280;70518;51.400;7.428;2023-09-07T10:58:35;161000.00;;;27.34;56.37
49689;BME280;70518;51.400;7.428;2023-09-07T11:01:01;161000.00;;;27.34;55.45
49689;BME280;70518;51.400;7.428;2023-09-07T11:03:28;161007.81;;;27.37;56.86
49689;BME280;70518;51.400;7.428;2023-09-07T11:05:59;161061.28;;;27.58;56.11
49689;BME280;70518;51.400;7.428;2023-09-07T11:08:29;161106.88;;;27.76;53.79
49689;BME280;70518;51.400;7.428;2023-09-07T11:10:54;161126.41;;;27.83;53.37
49689;BME280;70518;51.400;7.428;2023-09-07T11:13:20;161166.78;;;27.99;52.83
49689;BME280;70518;51.400;7.428;2023-09-07T11:15:46;161198.13;;;28.11;53.58
49689;BME280;70518;51.400;7.428;2023-09-07T11:18:11;161213.78;;;28.17;52.28
49689;BME280;70518;51.400;7.428;2023-09-07T11:20:38;161268.50;;;28.38;49.86
49689;BME280;70518;51.400;7.428;2023-09-07T11:23:06;161293.25;;;28.48;50.03
49689;BME280;70518;51.400;7.428;2023-09-07T11:25:38;161324.53;;;28.60;48.86
49689;BME280;70518;51.400;7.428;2023-09-07T11:28:08;161328.47;;;28.61;49.75
49689;BME280;70518;51.400;7.428;2023-09-07T11:30:34;161333.66;;;28.63;48.25
49689;BME280;70518;51.400;7.428;2023-09-07T11:33:04;161350.66;;;28.70;48.24
49689;BME280;70518;51.400;7.428;2023-09-07T11:35:30;161340.22;;;28.66;49.55
49689;BME280;70518;51.400;7.428;2023-09-07T11:37:55;161350.66;;;28.70;49.54
49689;BME280;70518;51.400;7.428;2023-09-07T11:40:21;161370.19;;;28.78;49.57
49689;BME280;70518;51.400;7.428;2023-09-07T11:42:46;161404.09;;;28.91;49.92
49689;BME280;70518;51.400;7.428;2023-09-07T11:45:11;161387.16;;;28.84;50.53
49689;BME280;70518;51.400;7.428;2023-09-07T11:47:38;161427.56;;;29.00;50.74
49689;BME280;70518;51.400;7.428;2023-09-07T11:50:05;161417.13;;;28.96;51.42
49689;BME280;70518;51.400;7.428;2023-09-07T11:52:31;161452.34;;;29.09;51.37
49689;BME280;70518;51.400;7.428;2023-09-07T11:54:56;161470.59;;;29.16;51.31
49689;BME280;70518;51.400;7.428;2023-09-07T11:57:22;161460.19;;;29.12;51.17
49689;BME280;70518;51.400;7.428;2023-09-07T11:59:47;161461.50;;;29.13;50.93
49689;BME280;70518;51.400;7.428;2023-09-07T12:02:12;161484.91;;;29.22;51.60
49689;BME280;70518;51.400;7.428;2023-09-07T12:04:39;161503.25;;;29.29;51.28
49689;BME280;70518;51.400;7.428;2023-09-07T12:07:05;161511.06;;;29.32;49.94
49689;BME280;70518;51.400;7.428;2023-09-07T12:09:30;161548.88;;;29.47;50.10
49689;BME280;70518;51.400;7.428;2023-09-07T12:11:55;161586.69;;;29.61;48.75
49689;BME280;70518;51.400;7.428;2023-09-07T12:14:21;161589.31;;;29.62;49.82
49689;BME280;70518;51.400;7.428;2023-09-07T12:16:47;161603.66;;;29.68;49.07
49689;BME280;70518;51.400;7.428;2023-09-07T12:19:13;161629.75;;;29.78;48.89
49689;BME280;70518;51.400;7.428;2023-09-07T12:21:38;161662.38;;;29.91;49.72
49689;BME280;70518;51.400;7.428;2023-09-07T12:24:03;161674.13;;;29.95;49.51
49689;BME280;70518;51.400;7.428;2023-09-07T12:26:29;161685.84;;;30.00;50.09
49689;BME280;70518;51.400;7.428;2023-09-07T12:28:54;161665.00;;;29.92;49.59
49689;BME280;70518;51.400;7.428;2023-09-07T12:31:19;161701.50;;;30.06;49.03
49689;BME280;70518;51.400;7.428;2023-09-07T12:33:44;161721.09;;;30.13;48.91
49689;BME280;70518;51.400;7.428;2023-09-07T12:36:10;161739.34;;;30.20;49.10
49689;BME280;70518;51.400;7.428;2023-09-07T12:38:36;161764.13;;;30.30;47.47